Terminal Aerodrome Forecast
Issued by NWS Atlanta, GA

Home | Current Version | Previous Version | Text Only | Print | Product List | Glossary On
Versions: 1 2 3 4 5 6 7 8 9 10 11 12 13 14 15 16 17 18 19 20 21 22
000
FTUS42 KFFC 060534
TAFMCN
TAF
KMCN 060534Z 0606/0706 34009KT P6SM BKN025
     FM061400 04009KT P6SM BKN025
     FM061500 04008KT P6SM SCT025
     FM062000 36006KT P6SM FEW035
     FM062200 35005KT P6SM SKC=

USA.gov is the U.S. government's official web portal to all federal, state and local government web resources and services.